Time;durP1;ratioP1;P1;durP2;ratioP2;P2;SDS_P1;SDS_P2;PMS_P1;PMS_P2;Temp;Humidity;BMP_temperature;BMP_pressure;BME280_temperature;BME280_humidity;BME280_pressure;Samples;Min_cycle;Max_cycle;Signal;HPM_P1;HPM_P2
2022/11/20 00:02:24;;;;;;;14.43;8.10;;;;;;;-2.93;84.19;99130.66;4932734;29;20054;-66
2022/11/20 00:04:50;;;;;;;18.45;8.40;;;;;;;-2.97;84.61;99126.78;4916851;29;20587;-66
2022/11/20 00:07:15;;;;;;;15.15;7.88;;;;;;;-3.01;84.35;99117.66;4916860;29;20047;-66
2022/11/20 00:09:41;;;;;;;13.88;6.63;;;;;;;-3.06;84.46;99125.94;4933927;29;20134;-67
2022/11/20 00:12:07;;;;;;;18.05;8.88;;;;;;;-2.97;84.85;99134.56;4916611;29;20039;-66
2022/11/20 00:14:32;;;;;;;15.57;8.23;;;;;;;-3.02;84.91;99121.25;4933460;29;20138;-66
2022/11/20 00:16:58;;;;;;;22.25;9.20;;;;;;;-2.95;85.14;99127.41;4916660;29;20138;-68
2022/11/20 00:19:24;;;;;;;16.10;7.57;;;;;;;-2.99;84.04;99129.50;4916809;29;20265;-67
2022/11/20 00:21:51;;;;;;;17.58;8.32;;;;;;;-2.95;84.27;99126.59;4933518;29;20044;-66
2022/11/20 00:24:16;;;;;;;19.25;8.95;;;;;;;-2.95;84.47;99135.19;4916420;29;20572;-67
2022/11/20 00:26:42;;;;;;;15.82;8.65;;;;;;;-2.93;83.99;99132.47;4916375;29;20040;-66
2022/11/20 00:29:09;;;;;;;14.18;7.30;;;;;;;-3.00;83.81;99127.06;4916595;29;20095;-66
2022/11/20 00:31:35;;;;;;;18.05;8.98;;;;;;;-2.98;83.96;99125.94;4900822;29;20036;-66
2022/11/20 00:34:01;;;;;;;17.13;8.02;;;;;;;-2.99;83.69;99126.13;4933584;29;20058;-67
2022/11/20 00:36:27;;;;;;;17.67;9.05;;;;;;;-3.00;83.88;99127.91;4916461;29;20040;-66
2022/11/20 00:38:57;;;;;;;17.48;7.47;;;;;;;-3.11;83.47;99122.19;4900854;29;20549;-66
2022/11/20 00:41:24;;;;;;;13.25;8.32;;;;;;;-3.00;83.93;99130.50;4885053;29;20051;-66
2022/11/20 00:43:52;;;;;;;15.20;8.52;;;;;;;-3.05;83.66;99121.56;4916400;29;20509;-67
2022/11/20 00:46:19;;;;;;;15.23;8.65;;;;;;;-3.00;83.40;99127.91;4933259;29;20043;-66
2022/11/20 00:48:45;;;;;;;14.88;8.25;;;;;;;-3.05;83.15;99121.56;4916526;29;20134;-67
2022/11/20 00:51:13;;;;;;;15.00;7.05;;;;;;;-3.14;82.88;99122.50;4919051;29;20040;-66
2022/11/20 00:53:39;;;;;;;15.57;8.32;;;;;;;-3.12;83.51;99123.94;4920257;29;20055;-67
2022/11/20 00:56:09;;;;;;;17.50;7.90;;;;;;;-3.07;83.09;99121.69;4888283;29;20043;-66
2022/11/20 00:58:37;;;;;;;17.35;7.50;;;;;;;-3.10;83.05;99116.03;4913822;29;20043;-66
2022/11/20 01:01:12;;;;;;;15.50;8.00;;;;;;;-2.99;82.57;99118.34;4955910;29;20079;-66
2022/11/20 01:03:43;;;;;;;16.42;8.43;;;;;;;-3.02;82.33;99122.06;4956241;29;20142;-66
2022/11/20 01:06:19;;;;;;;12.23;6.20;;;;;;;-3.02;82.16;99134.22;4938406;29;20095;-66
2022/11/20 01:08:46;;;;;;;13.23;7.20;;;;;;;-3.08;82.28;99119.28;4923136;29;20035;-66
2022/11/20 01:11:14;;;;;;;16.02;7.72;;;;;;;-3.10;82.10;99121.19;4938423;29;20070;-66
2022/11/20 01:13:41;;;;;;;11.93;6.82;;;;;;;-3.18;81.58;99116.78;4956030;29;20045;-66
2022/11/20 01:16:10;;;;;;;13.35;6.88;;;;;;;-3.15;82.23;99121.66;4955701;29;20474;-65
2022/11/20 01:18:37;;;;;;;12.35;6.68;;;;;;;-3.18;82.21;99121.97;4954583;29;20073;-67
2022/11/20 01:21:07;;;;;;;12.93;7.00;;;;;;;-3.16;81.89;99124.41;4938324;29;20517;-65
2022/11/20 01:23:34;;;;;;;;;;;;;;;-3.12;81.69;99117.94;4938971;29;20054;-66
2022/11/20 01:26:05;;;;;;;7.65;4.68;;;;;;;-3.17;81.53;99128.81;4922536;29;20303;-68
2022/11/20 01:28:31;;;;;;;10.05;6.20;;;;;;;-3.19;81.91;99120.34;4922265;29;20036;-66
2022/11/20 01:30:57;;;;;;;14.48;7.25;;;;;;;-3.24;81.32;99128.59;4955908;29;20084;-67
2022/11/20 01:33:24;;;;;;;11.05;4.75;;;;;;;-3.34;82.13;99121.91;4938322;29;20047;-66
2022/11/20 01:35:49;;;;;;;11.95;6.43;;;;;;;-3.35;81.38;99120.25;4938313;29;20047;-66
2022/11/20 01:38:15;;;;;;;8.88;5.55;;;;;;;-3.37;81.29;99125.63;4938049;29;20039;-67
2022/11/20 01:40:41;;;;;;;14.07;6.75;;;;;;;-3.28;81.23;99121.28;4924109;29;20134;-66
2022/11/20 01:43:22;;;;;;;11.88;6.68;;;;;;;-3.23;81.08;99124.25;4959466;29;20067;-65
2022/11/20 01:46:01;;;;;;;13.95;6.68;;;;;;;-3.20;81.24;99129.13;4928409;29;20062;-67
2022/11/20 01:49:00;;;;;;;12.07;6.28;;;;;;;-3.28;80.94;99129.88;4922963;29;20044;-65
2022/11/20 01:51:30;;;;;;;11.07;5.88;;;;;;;-3.34;81.43;99132.28;4954420;29;20055;-66
2022/11/20 01:53:58;;;;;;;10.23;5.75;;;;;;;-3.36;81.71;99139.38;4937723;29;20039;-67
2022/11/20 01:56:24;;;;;;;13.90;6.50;;;;;;;-3.34;81.56;99142.66;4937419;29;20055;-66
2022/11/20 01:58:54;;;;;;;11.18;6.55;;;;;;;-3.35;81.17;99143.59;4921904;29;20146;-67
2022/11/20 02:01:20;;;;;;;11.07;6.05;;;;;;;-3.39;81.69;99150.06;4921400;29;20061;-67
2022/11/20 02:03:46;;;;;;;10.15;6.75;;;;;;;-3.36;81.90;99145.38;4921703;29;20089;-67
2022/11/20 02:07:00;;;;;;;10.98;5.90;;;;;;;-3.35;81.87;99159.97;4954495;29;20528;-66
2022/11/20 02:09:27;;;;;;;14.00;6.57;;;;;;;-3.27;81.32;99154.00;4845701;29;20126;-66
2022/11/20 02:11:53;;;;;;;11.32;6.03;;;;;;;-3.26;81.51;99160.84;4845660;29;20037;-65
2022/11/20 02:14:20;;;;;;;13.02;7.07;;;;;;;-3.27;81.62;99154.81;4886928;29;20063;-66
2022/11/20 02:16:47;;;;;;;14.85;6.50;;;;;;;-3.30;81.44;99162.09;4937150;29;20043;-66
2022/11/20 02:19:30;;;;;;;15.75;6.57;;;;;;;-3.37;81.58;99163.69;4937463;29;20054;-66
2022/11/20 02:22:14;;;;;;;13.20;7.00;;;;;;;-3.36;81.69;99160.13;4937422;29;20110;-65
2022/11/20 02:24:41;;;;;;;16.00;8.27;;;;;;;-3.33;81.74;99165.00;4937179;29;20555;-65
2022/11/20 02:27:12;;;;;;;16.17;8.57;;;;;;;-3.31;81.49;99170.84;4954383;29;20047;-66
2022/11/20 02:29:42;;;;;;;18.40;9.25;;;;;;;-3.27;81.74;99164.38;4954135;29;20330;-67
2022/11/20 02:32:19;;;;;;;14.90;7.60;;;;;;;-3.22;81.28;99164.75;4937090;29;20051;-67
2022/11/20 02:34:44;;;;;;;18.80;9.18;;;;;;;-3.22;80.39;99168.13;4937033;29;20055;-67
2022/11/20 02:37:10;;;;;;;17.58;7.80;;;;;;;-3.24;81.14;99171.84;4954188;29;20051;-65
2022/11/20 02:39:36;;;;;;;13.07;6.85;;;;;;;-3.21;80.71;99179.31;4905270;29;20174;-66
2022/11/20 02:42:02;;;;;;;13.95;7.45;;;;;;;-3.17;80.82;99177.25;4952826;29;20501;-70
2022/11/20 02:44:27;;;;;;;17.00;8.15;;;;;;;-3.14;80.88;99176.94;4936625;29;20508;-66
2022/11/20 02:46:53;;;;;;;13.65;6.20;;;;;;;-3.24;80.49;99170.06;4920759;29;20098;-66
2022/11/20 02:49:18;;;;;;;13.77;7.88;;;;;;;-3.22;81.30;99170.72;4936803;29;20043;-67
2022/11/20 02:51:44;;;;;;;7.28;4.63;;;;;;;-3.18;80.41;99183.38;4936722;29;20051;-66
2022/11/20 02:54:10;;;;;;;12.70;7.43;;;;;;;-3.16;80.58;99179.69;4936623;29;20047;-68
2022/11/20 02:56:38;;;;;;;14.48;6.50;;;;;;;-3.17;80.81;99185.03;4935723;29;20051;-65
2022/11/20 02:59:04;;;;;;;12.18;6.07;;;;;;;-3.25;80.98;99185.78;4917422;29;20048;-67
2022/11/20 03:01:29;;;;;;;11.75;6.65;;;;;;;-3.28;81.02;99178.31;4917524;29;20394;-65
2022/11/20 03:03:55;;;;;;;11.55;6.55;;;;;;;-3.27;80.87;99187.72;4917936;29;20051;-67
2022/11/20 03:06:21;;;;;;;14.57;8.00;;;;;;;-3.24;81.35;99185.63;4901769;29;20079;-65
2022/11/20 03:08:47;;;;;;;8.25;5.30;;;;;;;-3.24;80.33;99184.81;4917691;29;20048;-68
2022/11/20 03:11:13;;;;;;;9.38;5.82;;;;;;;-3.27;79.91;99185.13;4886334;29;20422;-65
2022/11/20 03:13:38;;;;;;;11.90;5.28;;;;;;;-3.33;80.45;99183.13;4934355;29;20044;-65
2022/11/20 03:16:09;;;;;;;8.52;4.90;;;;;;;-3.23;80.24;99186.44;4901563;29;20066;-66
2022/11/20 03:18:35;;;;;;;10.80;6.00;;;;;;;-3.25;80.29;99183.19;4917609;29;20506;-66
2022/11/20 03:21:01;;;;;;;9.57;5.60;;;;;;;-3.25;79.88;99183.19;4886153;29;20150;-66
2022/11/20 03:23:29;;;;;;;12.13;6.10;;;;;;;-3.23;80.15;99178.69;4901778;29;20413;-66
2022/11/20 03:25:54;;;;;;;10.63;5.43;;;;;;;-3.26;79.75;99184.16;4934253;29;20131;-66
2022/11/20 03:28:20;;;;;;;8.23;4.60;;;;;;;-3.28;79.92;99194.69;4934617;29;20090;-66
2022/11/20 03:30:46;;;;;;;9.50;5.43;;;;;;;-3.23;79.75;99186.44;4898163;29;20609;-65
2022/11/20 03:33:11;;;;;;;10.90;5.25;;;;;;;-3.27;79.91;99191.09;4898237;29;20040;-65
2022/11/20 03:35:37;;;;;;;10.52;6.13;;;;;;;-3.27;80.07;99182.53;4915240;29;20040;-66
2022/11/20 03:38:02;;;;;;;12.05;6.18;;;;;;;-3.12;79.79;99187.94;4915146;29;20050;-67
2022/11/20 03:40:28;;;;;;;10.60;5.85;;;;;;;-3.11;79.30;99193.00;4882765;29;20510;-66
2022/11/20 03:42:54;;;;;;;13.80;7.07;;;;;;;-3.09;79.75;99178.09;4913926;29;20055;-65
2022/11/20 03:45:19;;;;;;;10.43;6.13;;;;;;;-3.15;79.33;99183.88;4915358;29;20052;-67
2022/11/20 03:47:45;;;;;;;12.75;5.63;;;;;;;-3.24;79.92;99188.22;4914899;29;20115;-65
2022/11/20 03:50:13;;;;;;;9.38;5.60;;;;;;;-3.17;79.70;99198.00;4898353;29;20052;-65
2022/11/20 03:52:39;;;;;;;11.15;5.60;;;;;;;-3.18;79.76;99188.56;4882775;29;20076;-66
2022/11/20 03:55:06;;;;;;;11.55;5.47;;;;;;;-3.14;79.79;99187.31;4882626;29;20052;-67
2022/11/20 03:57:31;;;;;;;12.80;6.68;;;;;;;-3.08;79.49;99195.28;4929535;29;20040;-66
2022/11/20 03:59:57;;;;;;;10.90;6.40;;;;;;;-3.01;79.38;99196.28;4915355;29;20095;-65
2022/11/20 04:02:23;;;;;;;12.77;6.93;;;;;;;-3.04;79.54;99201.78;4913891;29;20054;-65
2022/11/20 04:04:48;;;;;;;11.10;6.00;;;;;;;-3.01;79.58;99203.25;4914976;29;20057;-65
2022/11/20 04:07:14;;;;;;;10.18;6.45;;;;;;;-3.01;79.15;99206.66;4913631;29;20096;-66
2022/11/20 04:09:39;;;;;;;12.52;6.40;;;;;;;-2.97;79.58;99202.78;4913712;29;20048;-66
2022/11/20 04:12:05;;;;;;;14.85;6.70;;;;;;;-2.90;79.44;99210.75;4914784;29;20425;-66
2022/11/20 04:14:31;;;;;;;13.27;6.85;;;;;;;-2.94;78.62;99213.81;4915150;29;20558;-65
2022/11/20 04:16:57;;;;;;;9.80;5.75;;;;;;;-3.01;78.93;99204.06;4882436;29;20560;-66
2022/11/20 04:19:22;;;;;;;10.65;5.90;;;;;;;-3.12;78.71;99206.91;4915083;29;20052;-65
2022/11/20 04:21:48;;;;;;;11.95;6.13;;;;;;;-3.04;79.29;99214.75;4914947;29;20104;-67
2022/11/20 04:24:14;;;;;;;11.70;6.45;;;;;;;-3.03;78.84;99220.72;4899265;29;20403;-67
2022/11/20 04:26:39;;;;;;;13.57;6.05;;;;;;;-3.04;78.33;99217.34;4901403;29;20458;-66
2022/11/20 04:29:05;;;;;;;13.80;6.70;;;;;;;-3.01;78.74;99227.41;4917149;29;20070;-66
2022/11/20 04:31:33;;;;;;;11.93;6.60;;;;;;;-3.03;78.44;99234.53;4917029;29;20044;-66
2022/11/20 04:34:00;;;;;;;11.05;6.97;;;;;;;-3.03;78.72;99239.72;4917096;29;20084;-66
2022/11/20 04:36:27;;;;;;;14.32;7.20;;;;;;;-2.95;78.27;99243.31;4901251;29;20048;-66
2022/11/20 04:38:56;;;;;;;12.73;7.07;;;;;;;-3.03;78.40;99244.06;4901199;29;20557;-66
2022/11/20 04:41:24;;;;;;;15.00;7.50;;;;;;;-3.07;78.64;99240.97;4901095;29;20442;-66
2022/11/20 04:43:52;;;;;;;16.58;7.72;;;;;;;-3.00;78.51;99247.19;4901333;29;20047;-66
2022/11/20 04:46:19;;;;;;;13.90;7.97;;;;;;;-2.98;78.17;99258.22;4916833;29;20051;-66
2022/11/20 04:48:46;;;;;;;14.75;7.65;;;;;;;-2.88;78.47;99259.88;4916834;29;20044;-66
2022/11/20 04:51:12;;;;;;;15.05;7.72;;;;;;;-2.90;77.76;99256.66;4932603;29;20533;-66
2022/11/20 04:53:38;;;;;;;14.02;6.63;;;;;;;-2.86;77.85;99256.16;4916899;29;20075;-66
2022/11/20 04:56:05;;;;;;;10.23;6.25;;;;;;;-2.88;77.57;99262.47;4916742;29;20055;-66
2022/11/20 04:58:31;;;;;;;14.32;7.63;;;;;;;-2.86;77.96;99266.53;4900802;29;20044;-66
2022/11/20 05:01:05;;;;;;;13.48;7.15;;;;;;;-2.84;78.05;99269.00;4917844;29;20048;-65
2022/11/20 05:03:31;;;;;;;15.55;7.47;;;;;;;-2.85;77.64;99270.78;4916870;29;20198;-65
2022/11/20 05:06:00;;;;;;;11.70;6.57;;;;;;;-2.88;77.35;99265.06;4916451;29;20581;-66
2022/11/20 05:08:25;;;;;;;14.85;7.72;;;;;;;-2.91;78.16;99255.84;4918133;29;20466;-67
2022/11/20 05:10:51;;;;;;;16.92;8.43;;;;;;;-2.81;77.75;99266.91;4916387;29;20142;-66
2022/11/20 05:13:17;;;;;;;16.80;7.70;;;;;;;-2.80;77.81;99265.13;4917636;29;20043;-66
2022/11/20 05:15:43;;;;;;;13.30;8.23;;;;;;;-2.82;77.61;99269.66;4917347;29;20059;-65
2022/11/20 05:18:09;;;;;;;15.20;8.00;;;;;;;-2.86;77.76;99270.91;4917586;29;20060;-66
2022/11/20 05:20:36;;;;;;;13.70;7.57;;;;;;;-2.86;77.82;99274.31;4900315;29;20048;-65
2022/11/20 05:23:01;;;;;;;16.17;8.07;;;;;;;-2.82;78.07;99275.66;4907168;29;20041;-66
2022/11/20 05:25:27;;;;;;;17.02;8.10;;;;;;;-2.79;78.06;99280.53;4886701;29;20412;-67
2022/11/20 05:27:53;;;;;;;14.27;7.53;;;;;;;-2.79;77.91;99285.72;4889027;29;20048;-66
2022/11/20 05:30:19;;;;;;;12.98;7.30;;;;;;;-2.79;77.91;99290.91;4894220;29;20063;-67
2022/11/20 05:32:45;;;;;;;14.40;7.53;;;;;;;-2.80;77.89;99291.88;4896821;29;20453;-67
2022/11/20 05:35:11;;;;;;;15.90;8.30;;;;;;;-2.78;77.90;99291.72;4896396;29;20044;-65
2022/11/20 05:37:36;;;;;;;16.17;8.80;;;;;;;-2.83;77.93;99293.97;4896600;29;20119;-67
2022/11/20 05:40:02;;;;;;;13.38;7.68;;;;;;;-2.82;78.25;99288.63;4896804;29;20595;-66
2022/11/20 05:42:32;;;;;;;16.00;8.18;;;;;;;-2.80;78.39;99298.84;4896579;29;20049;-67
2022/11/20 05:44:58;;;;;;;15.45;8.40;;;;;;;-2.78;78.21;99300.31;4897627;29;20077;-67
2022/11/20 05:47:25;;;;;;;20.25;9.20;;;;;;;-2.69;78.25;99301.19;4880783;29;20079;-65
2022/11/20 05:49:50;;;;;;;17.05;8.43;;;;;;;-2.73;78.20;99296.47;4896829;29;20082;-66
2022/11/20 05:52:16;;;;;;;19.10;9.30;;;;;;;-2.64;78.42;99311.09;4897138;29;20511;-66
2022/11/20 05:54:41;;;;;;;17.73;9.13;;;;;;;-2.60;78.18;99307.22;4881139;29;20045;-64
2022/11/20 05:57:07;;;;;;;20.85;8.70;;;;;;;-2.59;78.75;99304.50;4898101;29;20079;-66
2022/11/20 05:59:33;;;;;;;19.27;9.10;;;;;;;-2.61;78.46;99308.19;4896579;29;20059;-65
2022/11/20 06:01:58;;;;;;;19.92;9.80;;;;;;;-2.60;77.90;99310.63;4881354;29;20041;-68
2022/11/20 06:04:24;;;;;;;23.42;10.27;;;;;;;-2.59;78.38;99317.47;4896643;29;20405;-67
2022/11/20 06:06:50;;;;;;;18.95;10.27;;;;;;;-2.57;78.49;99320.69;4896514;29;20040;-67
2022/11/20 06:09:15;;;;;;;24.23;10.98;;;;;;;-2.48;78.57;99324.16;4896596;29;20092;-67
2022/11/20 06:11:41;;;;;;;20.88;9.60;;;;;;;-2.51;78.33;99330.47;4897584;29;20050;-67
2022/11/20 06:14:06;;;;;;;18.65;9.55;;;;;;;-2.50;78.52;99339.06;4897604;29;20048;-67
2022/11/20 06:16:32;;;;;;;24.73;11.02;;;;;;;-2.46;78.47;99350.78;4905120;29;20074;-69
2022/11/20 06:18:57;;;;;;;17.98;9.75;;;;;;;-2.39;78.63;99345.78;4915199;29;20055;-67
2022/11/20 06:21:23;;;;;;;21.58;10.30;;;;;;;-2.29;78.72;99354.28;4914907;29;20051;-67
2022/11/20 06:23:50;;;;;;;21.25;10.98;;;;;;;-2.26;77.62;99353.13;4915273;29;20056;-69
2022/11/20 06:26:21;;;;;;;17.17;9.65;;;;;;;-2.24;77.57;99344.22;4915242;29;20510;-69
2022/11/20 06:28:47;;;;;;;24.83;10.68;;;;;;;-2.16;77.42;99348.63;4919729;29;20450;-71
2022/11/20 06:31:15;;;;;;;20.98;10.50;;;;;;;-2.16;77.41;99349.44;4954506;29;20043;-68
2022/11/20 06:33:42;;;;;;;22.70;11.05;;;;;;;-2.15;77.59;99353.66;4921244;29;20067;-68
2022/11/20 06:36:10;;;;;;;18.48;8.98;;;;;;;-2.14;77.40;99349.31;4905488;29;20098;-67
2022/11/20 06:38:36;;;;;;;20.73;9.50;;;;;;;-2.15;77.05;99365.84;4921447;29;20070;-66
2022/11/20 06:41:03;;;;;;;18.20;9.77;;;;;;;-2.14;76.61;99364.88;4937119;29;20501;-65
2022/11/20 06:43:29;;;;;;;21.77;12.10;;;;;;;-2.02;77.01;99373.22;4937139;29;20054;-66
2022/11/20 06:45:56;;;;;;;24.10;13.32;;;;;;;-1.96;76.80;99368.19;4936805;29;20054;-65
2022/11/20 06:48:23;;;;;;;22.98;11.95;;;;;;;-1.96;75.89;99375.97;4935815;29;20146;-66
2022/11/20 06:50:49;;;;;;;21.70;11.63;;;;;;;-1.97;76.00;99368.34;4953774;29;20050;-65
2022/11/20 06:53:15;;;;;;;17.70;9.45;;;;;;;-2.04;75.45;99369.94;4936745;29;20035;-67
2022/11/20 06:55:47;;;;;;;20.08;10.23;;;;;;;-2.07;75.54;99366.69;4936656;29;20102;-65
2022/11/20 06:58:14;;;;;;;21.88;10.07;;;;;;;-1.97;75.38;99363.13;4936818;29;20066;-64
2022/11/20 07:00:40;;;;;;;22.67;10.73;;;;;;;-2.00;75.24;99361.69;4936488;29;20051;-64
2022/11/20 07:03:07;;;;;;;20.27;9.80;;;;;;;-1.99;75.45;99363.31;4921196;29;20053;-65
2022/11/20 07:05:33;;;;;;;23.05;10.57;;;;;;;-1.91;76.16;99362.50;4936807;29;20054;-64
2022/11/20 07:07:59;;;;;;;19.52;10.50;;;;;;;-1.86;75.78;99360.25;4920976;29;20098;-62
2022/11/20 07:10:25;;;;;;;19.58;9.43;;;;;;;-1.86;75.06;99355.88;4953611;29;20047;-66
2022/11/20 07:12:52;;;;;;;21.63;11.00;;;;;;;-1.84;75.69;99355.72;4953901;29;20109;-65
2022/11/20 07:15:18;;;;;;;21.27;10.40;;;;;;;-1.80;75.46;99353.63;4936479;29;20051;-65
2022/11/20 07:17:44;;;;;;;22.25;10.50;;;;;;;-1.75;75.38;99354.78;4920788;29;20283;-65
2022/11/20 07:20:10;;;;;;;21.50;10.98;;;;;;;-1.68;75.08;99362.75;4936720;29;20132;-63
2022/11/20 07:22:36;;;;;;;21.23;11.43;;;;;;;-1.61;74.87;99369.75;4920501;29;20067;-65
2022/11/20 07:25:03;;;;;;;20.15;10.13;;;;;;;-1.55;74.10;99365.72;4936402;29;20075;-65
2022/11/20 07:27:29;;;;;;;21.17;10.55;;;;;;;-1.48;74.44;99363.28;4953432;29;20051;-65
2022/11/20 07:29:55;;;;;;;19.40;10.45;;;;;;;-1.44;73.43;99367.16;4953361;28;20129;-66
2022/11/20 07:32:21;;;;;;;20.08;10.13;;;;;;;-1.51;73.43;99363.59;4935946;29;20047;-64
2022/11/20 07:34:47;;;;;;;18.55;10.68;;;;;;;-1.51;73.84;99367.00;4936261;29;20047;-64
2022/11/20 07:37:13;;;;;;;20.42;10.50;;;;;;;-1.53;73.25;99368.97;4920346;29;20428;-65
2022/11/20 07:39:39;;;;;;;17.35;9.93;;;;;;;-1.56;73.78;99373.66;4953307;29;20047;-65
2022/11/20 07:42:06;;;;;;;21.42;11.07;;;;;;;-1.54;73.95;99374.31;4936044;29;20050;-65
2022/11/20 07:44:32;;;;;;;21.17;10.18;;;;;;;-1.49;73.55;99374.66;4953165;29;20047;-65
2022/11/20 07:46:57;;;;;;;22.27;10.75;;;;;;;-1.33;73.79;99385.06;4951754;29;20401;-64
2022/11/20 07:49:23;;;;;;;20.23;10.68;;;;;;;-1.35;72.98;99375.78;4934581;29;20134;-66
2022/11/20 07:51:54;;;;;;;20.42;10.77;;;;;;;-1.36;72.78;99382.78;4901230;29;20055;-64
2022/11/20 07:54:20;;;;;;;21.20;10.65;;;;;;;-1.30;73.01;99384.75;4901609;29;20051;-64
2022/11/20 07:56:47;;;;;;;18.77;10.45;;;;;;;-1.29;72.12;99386.38;4934098;29;20047;-64
2022/11/20 07:59:13;;;;;;;24.38;10.90;;;;;;;-1.31;72.38;99388.31;4902702;29;20521;-64
2022/11/20 08:01:41;;;;;;;17.70;10.82;;;;;;;-1.35;72.83;99384.44;4904872;29;20047;-63
2022/11/20 08:04:09;;;;;;;19.77;10.30;;;;;;;-1.34;72.76;99378.25;4874728;29;20354;-65
2022/11/20 08:06:35;;;;;;;20.38;10.57;;;;;;;-1.32;73.44;99381.50;4937631;29;20315;-66
2022/11/20 08:09:01;;;;;;;19.17;10.52;;;;;;;-1.31;72.93;99393.53;4920865;29;20047;-66
2022/11/20 08:14:13;;;;;;;22.65;11.25;;;;;;;-1.24;71.85;99389.28;4920704;29;20425;-65
2022/11/20 08:16:40;;;;;;;18.88;10.35;;;;;;;-1.34;72.25;99391.25;4920683;29;20060;-69
2022/11/20 08:19:07;;;;;;;20.98;11.40;;;;;;;-1.32;72.52;99394.50;4920820;29;20079;-67
2022/11/20 08:21:33;;;;;;;24.42;11.38;;;;;;;-1.32;72.25;99389.31;4921432;29;20044;-66
2022/11/20 08:23:59;;;;;;;20.85;10.95;;;;;;;-1.33;72.38;99398.06;4938621;29;20044;-66
2022/11/20 08:26:28;;;;;;;19.58;11.27;;;;;;;-1.36;72.14;99398.38;4922374;29;20398;-65
2022/11/20 08:28:59;;;;;;;22.48;12.60;;;;;;;-1.34;73.03;99404.25;4923051;29;20055;-65
2022/11/20 08:31:27;;;;;;;19.73;11.13;;;;;;;-1.26;72.08;99409.47;4908316;29;20055;-66
2022/11/20 08:33:53;;;;;;;24.40;12.20;;;;;;;-1.18;72.31;99401.69;4938376;29;20047;-65
2022/11/20 08:36:25;;;;;;;21.23;10.80;;;;;;;-1.17;71.79;99405.91;4920481;29;20086;-67
2022/11/20 08:38:53;;;;;;;21.13;10.98;;;;;;;-1.16;72.15;99406.72;4905173;29;20050;-65
2022/11/20 08:41:32;;;;;;;20.55;10.55;;;;;;;-1.07;71.74;99413.53;4914794;23;21130;-64
2022/11/20 08:44:03;;;;;;;20.02;10.52;;;;;;;-1.06;71.25;99416.94;4907553;29;20095;-65
2022/11/20 08:46:36;;;;;;;26.20;12.32;;;;;;;-1.01;71.37;99419.91;4963673;28;20118;-66
2022/11/20 08:49:01;;;;;;;23.45;11.60;;;;;;;-0.89;72.16;99426.41;4958202;28;20043;-64
2022/11/20 08:51:27;;;;;;;20.38;11.35;;;;;;;-0.88;70.79;99419.41;4926349;28;20039;-66
2022/11/20 08:53:54;;;;;;;23.00;11.93;;;;;;;-0.81;71.99;99425.59;4975368;28;20043;-65
2022/11/20 08:56:20;;;;;;;24.35;12.73;;;;;;;-0.76;71.92;99438.94;4975610;28;20093;-65
2022/11/20 08:58:46;;;;;;;23.73;12.13;;;;;;;-0.66;71.67;99439.56;4926256;28;20117;-64
2022/11/20 09:01:12;;;;;;;22.50;12.02;;;;;;;-0.59;70.53;99439.72;4975166;28;20514;-66
2022/11/20 09:03:38;;;;;;;24.98;12.50;;;;;;;-0.56;71.07;99429.81;4957505;28;20065;-64
2022/11/20 09:06:06;;;;;;;29.10;12.98;;;;;;;-0.58;70.32;99443.97;4975280;28;20130;-64
2022/11/20 09:08:33;;;;;;;22.05;11.65;;;;;;;-0.51;71.12;99461.38;4957928;28;20046;-66
2022/11/20 09:10:59;;;;;;;28.08;13.30;;;;;;;-0.46;71.19;99458.28;4940775;28;20046;-66
2022/11/20 09:13:26;;;;;;;22.88;11.48;;;;;;;-0.43;70.30;99459.75;4957568;28;20089;-66
2022/11/20 09:16:07;;;;;;;24.17;12.32;;;;;;;-0.35;70.87;99468.38;4957584;28;20149;-68
2022/11/20 09:18:37;;;;;;;26.15;12.38;;;;;;;-0.34;70.38;99472.59;4957810;28;20047;-69
2022/11/20 09:21:06;;;;;;;28.45;12.45;;;;;;;-0.29;70.70;99472.91;4941594;28;20047;-68
2022/11/20 09:23:34;;;;;;;23.58;13.10;;;;;;;-0.16;71.71;99466.38;4959220;28;20049;-70
2022/11/20 09:26:05;;;;;;;29.17;13.23;;;;;;;-0.03;70.33;99479.69;4941515;28;20046;-69
2022/11/20 09:28:31;;;;;;;;;;;;;;;0.01;70.31;99488.00;4942097;28;20074;-70
2022/11/20 09:30:56;;;;;;;29.58;15.10;;;;;;;0.04;70.58;99498.09;4974825;28;19926;-68
2022/11/20 09:33:22;;;;;;;28.70;15.13;;;;;;;0.12;70.44;99504.09;4941808;28;20050;-69
2022/11/20 09:35:48;;;;;;;23.63;12.68;;;;;;;0.10;69.28;99497.44;4925465;28;20053;-69
2022/11/20 09:38:14;;;;;;;30.27;15.15;;;;;;;0.09;69.14;99506.22;4957899;28;20488;-69
2022/11/20 09:40:45;;;;;;;27.65;12.90;;;;;;;0.15;70.27;99502.97;4926173;28;20042;-69
2022/11/20 09:43:33;;;;;;;33.05;14.68;;;;;;;0.22;69.97;99509.13;4958015;28;20054;-70
2022/11/20 09:46:33;;;;;;;26.25;13.00;;;;;;;0.14;69.75;99517.78;4942115;28;20101;-69
2022/11/20 09:49:15;;;;;;;29.17;13.60;;;;;;;0.27;70.86;99517.25;4957932;28;20050;-67
2022/11/20 09:51:58;;;;;;;32.92;15.10;;;;;;;0.33;70.76;99511.38;4941272;28;20555;-68
2022/11/20 09:54:36;;;;;;;33.78;15.45;;;;;;;0.43;70.63;99513.78;4957307;28;20536;-71
2022/11/20 09:57:09;;;;;;;32.05;15.20;;;;;;;0.42;70.42;99509.56;4957435;28;20497;-70
2022/11/20 10:00:05;;;;;;;28.27;14.70;;;;;;;0.44;70.34;99510.19;4957478;28;20046;-68
2022/11/20 10:02:44;;;;;;;33.33;14.93;;;;;;;0.57;70.14;99518.28;4974264;28;20089;-69
2022/11/20 10:05:18;;;;;;;28.58;14.00;;;;;;;0.60;70.77;99514.53;4940675;28;20104;-68
2022/11/20 10:08:09;;;;;;;27.13;14.38;;;;;;;0.64;71.22;99523.63;4957113;28;20045;-69
2022/11/20 10:10:47;;;;;;;30.63;14.43;;;;;;;0.55;69.71;99517.63;4941176;28;20049;-69
2022/11/20 10:14:00;;;;;;;30.48;14.43;;;;;;;0.58;70.88;99522.53;4941643;28;20045;-69
2022/11/20 10:16:39;;;;;;;25.30;13.70;;;;;;;0.60;69.96;99527.59;4876774;29;20053;-71
2022/11/20 10:19:19;;;;;;;32.40;14.48;;;;;;;0.63;69.83;99535.06;4861262;29;20191;-69
2022/11/20 10:22:05;;;;;;;33.25;14.50;;;;;;;0.63;71.22;99535.88;4945471;28;20043;-68
2022/11/20 10:25:05;;;;;;;28.67;14.57;;;;;;;0.65;70.49;99536.53;4940118;28;20423;-65
2022/11/20 10:28:00;;;;;;;28.03;13.43;;;;;;;0.73;70.50;99535.66;4956210;28;20059;-68
2022/11/20 10:30:31;;;;;;;31.90;14.52;;;;;;;0.77;70.20;99529.13;4931033;28;20668;-69
2022/11/20 10:33:11;;;;;;;31.60;14.10;;;;;;;0.86;70.83;99528.09;4908625;28;20050;-69
2022/11/20 10:36:00;;;;;;;48.38;21.30;;;;;;;0.84;70.49;99532.69;4939771;28;20101;-68
2022/11/20 10:38:35;;;;;;;32.13;14.98;;;;;;;0.89;70.20;99532.19;4956327;28;20039;-68
2022/11/20 10:43:48;;;;;;;31.73;14.90;;;;;;;0.92;71.55;99541.47;4942622;28;20035;-68
2022/11/20 10:46:24;;;;;;;32.85;14.43;;;;;;;0.86;71.00;99533.34;4955893;28;20096;-68
2022/11/20 10:48:50;;;;;;;32.30;14.35;;;;;;;0.92;71.46;99533.63;4973608;28;20050;-68
2022/11/20 10:51:37;;;;;;;29.88;14.48;;;;;;;0.87;71.40;99524.50;4955743;28;20500;-70
2022/11/20 10:54:16;;;;;;;37.17;14.88;;;;;;;0.87;71.73;99539.34;4955809;28;20050;-69
2022/11/20 10:56:49;;;;;;;32.58;16.00;;;;;;;0.85;72.19;99542.16;4940030;28;20050;-69
2022/11/20 10:59:52;;;;;;;30.33;14.27;;;;;;;0.75;72.03;99548.56;4955898;28;20043;-69
2022/11/20 11:02:23;;;;;;;31.30;14.50;;;;;;;0.65;71.98;99533.91;4956062;28;20134;-71
2022/11/20 11:04:51;;;;;;;39.47;16.13;;;;;;;0.68;71.91;99544.00;4955652;28;20113;-69
2022/11/20 11:07:49;;;;;;;35.00;16.10;;;;;;;0.65;72.03;99552.19;4939855;28;20038;-70
2022/11/20 11:10:30;;;;;;;26.25;13.18;;;;;;;0.52;71.96;99538.84;4956271;28;20062;-69
2022/11/20 11:12:56;;;;;;;30.67;13.57;;;;;;;0.56;72.14;99545.38;4955481;28;20455;-69
2022/11/20 11:15:36;;;;;;;29.13;14.10;;;;;;;0.61;72.31;99558.69;4955453;28;20054;-69
2022/11/20 11:18:02;;;;;;;31.00;14.10;;;;;;;0.60;72.35;99564.91;4955866;28;20412;-70
2022/11/20 11:20:28;;;;;;;30.00;14.45;;;;;;;0.61;72.58;99550.06;4955444;28;20046;-70
2022/11/20 11:22:58;;;;;;;23.92;12.05;;;;;;;0.70;72.42;99567.31;4920416;28;20039;-70
2022/11/20 11:25:28;;;;;;;27.65;13.32;;;;;;;0.66;71.27;99566.03;4954598;28;20043;-66
2022/11/20 11:27:59;;;;;;;24.17;11.98;;;;;;;0.66;72.07;99571.25;4920002;28;20122;-66
2022/11/20 11:30:42;;;;;;;26.67;11.85;;;;;;;0.58;71.43;99555.63;4936668;29;20047;-65
2022/11/20 11:33:19;;;;;;;30.10;12.07;;;;;;;0.63;71.39;99561.16;4920162;29;20035;-67
2022/11/20 11:35:53;;;;;;;21.20;11.07;;;;;;;0.56;70.72;99544.53;4974582;23;20054;-65
2022/11/20 11:38:36;;;;;;;19.92;11.02;;;;;;;0.66;69.58;99572.06;4880748;29;20044;-68
2022/11/20 11:41:03;;;;;;;20.80;10.77;;;;;;;0.63;70.81;99569.78;4894944;29;20063;-65